createdAt,value
2018-02-25T00:00:02.426Z,1054.71
2018-02-25T00:01:02.407Z,1054.73
2018-02-25T00:02:02.386Z,1054.73
2018-02-25T00:03:02.364Z,1054.74
2018-02-25T00:04:02.342Z,1054.74
2018-02-25T00:05:02.325Z,1054.78
2018-02-25T00:06:02.301Z,1054.75
2018-02-25T00:07:02.281Z,1054.73
2018-02-25T00:08:02.266Z,1054.73
2018-02-25T00:09:02.243Z,1054.71
2018-02-25T00:10:02.220Z,1054.71
2018-02-25T00:11:02.200Z,1054.66
2018-02-25T00:12:02.180Z,1054.68
2018-02-25T00:13:02.159Z,1054.65
2018-02-25T00:14:02.144Z,1054.68
2018-02-25T00:15:02.123Z,1054.66
2018-02-25T00:16:02.099Z,1054.67
2018-02-25T00:17:02.077Z,1054.62
2018-02-25T00:18:02.061Z,1054.66
2018-02-25T00:19:02.040Z,1054.63
2018-02-25T00:20:02.018Z,1054.64
2018-02-25T00:21:02.012Z,1054.62
2018-02-25T00:22:01.979Z,1054.67
2018-02-25T00:23:01.955Z,1054.66
2018-02-25T00:24:01.934Z,1054.67
2018-02-25T00:25:01.917Z,1054.68
2018-02-25T00:26:01.897Z,1054.7
2018-02-25T00:27:01.873Z,1054.69
2018-02-25T00:28:01.853Z,1054.68
2018-02-25T00:29:01.836Z,1054.7
2018-02-25T00:30:02.063Z,1054.71
2018-02-25T00:31:01.792Z,1054.7
2018-02-25T00:32:01.774Z,1054.7
2018-02-25T00:33:01.752Z,1054.71
2018-02-25T00:34:01.734Z,1054.65
2018-02-25T00:35:01.710Z,1054.69
2018-02-25T00:36:01.693Z,1054.65
2018-02-25T00:37:01.673Z,1054.68
2018-02-25T00:38:01.648Z,1054.67
2018-02-25T00:39:01.628Z,1054.68
2018-02-25T00:40:01.614Z,1054.66
2018-02-25T00:41:01.588Z,1054.66
2018-02-25T00:42:01.566Z,1054.69
2018-02-25T00:43:01.547Z,1054.67
2018-02-25T00:44:01.526Z,1054.68
2018-02-25T00:45:01.506Z,1054.69
2018-02-25T00:46:01.495Z,1054.69
2018-02-25T00:47:01.464Z,1054.66
2018-02-25T00:48:01.444Z,1054.64
2018-02-25T00:49:01.425Z,1054.65
2018-02-25T00:50:01.406Z,1054.63
2018-02-25T00:51:01.385Z,1054.63
2018-02-25T00:52:01.365Z,1054.7
2018-02-25T00:53:01.340Z,1054.7
2018-02-25T00:54:01.320Z,1054.66
2018-02-25T00:55:01.300Z,1054.64
2018-02-25T00:56:01.282Z,1054.66
2018-02-25T00:57:01.260Z,1054.63
2018-02-25T00:58:01.238Z,1054.68
2018-02-25T00:59:01.218Z,1054.64
2018-02-25T01:00:01.197Z,1054.69
2018-02-25T01:01:01.181Z,1054.63
2018-02-25T01:02:01.161Z,1054.6
2018-02-25T01:03:01.138Z,1054.6
2018-02-25T01:04:01.118Z,1054.58
2018-02-25T01:05:01.095Z,1054.61
2018-02-25T01:06:01.079Z,1054.63
2018-02-25T01:07:01.057Z,1054.59
2018-02-25T01:08:01.035Z,1054.59
2018-02-25T01:09:01.014Z,1054.58
2018-02-25T01:10:00.994Z,1054.62
2018-02-25T01:11:00.973Z,1054.62
2018-02-25T01:12:00.950Z,1054.68
2018-02-25T01:13:00.930Z,1054.66
2018-02-25T01:14:00.913Z,1054.68
2018-02-25T01:15:00.943Z,1054.71
2018-02-25T01:16:00.870Z,1054.72
2018-02-25T01:17:00.851Z,1054.71
2018-02-25T01:18:00.831Z,1054.74
2018-02-25T01:19:00.828Z,1054.79
2018-02-25T01:20:00.787Z,1054.76
2018-02-25T01:21:00.768Z,1054.74
2018-02-25T01:22:00.745Z,1054.75
2018-02-25T01:23:00.726Z,1054.78
2018-02-25T01:24:00.709Z,1054.78
2018-02-25T01:25:00.686Z,1054.77
2018-02-25T01:26:00.667Z,1054.76
2018-02-25T01:27:00.645Z,1054.76
2018-02-25T01:28:00.622Z,1054.75
2018-02-25T01:29:00.601Z,1054.77
2018-02-25T01:30:00.582Z,1054.79
2018-02-25T01:31:00.564Z,1054.79
2018-02-25T01:32:00.540Z,1054.78
2018-02-25T01:33:00.520Z,1054.8
2018-02-25T01:34:00.498Z,1054.79
2018-02-25T01:35:00.480Z,1054.78
2018-02-25T01:36:00.459Z,1054.75
2018-02-25T01:37:00.436Z,1054.74
2018-02-25T01:38:00.421Z,1054.71
2018-02-25T01:39:00.395Z,1054.74
2018-02-25T01:40:00.377Z,1054.76
2018-02-25T01:41:00.354Z,1054.7
2018-02-25T01:42:00.334Z,1054.71
2018-02-25T01:43:00.322Z,1054.68
2018-02-25T01:44:00.301Z,1054.72
2018-02-25T01:45:00.271Z,1054.72
2018-02-25T01:46:00.258Z,1054.71
2018-02-25T01:47:00.230Z,1054.74
2018-02-25T01:48:00.209Z,1054.75
2018-02-25T01:49:00.191Z,1054.72
2018-02-25T01:50:00.171Z,1054.73
2018-02-25T01:51:00.151Z,1054.77
2018-02-25T01:52:00.127Z,1054.81
2018-02-25T01:53:00.109Z,1054.74
2018-02-25T01:54:00.087Z,1054.8
2018-02-25T01:55:00.072Z,1054.81
2018-02-25T01:56:00.044Z,1054.87
2018-02-25T01:57:00.024Z,1054.84
2018-02-25T01:58:00.003Z,1054.89
2018-02-25T01:58:59.980Z,1054.8
2018-02-25T01:59:59.964Z,1054.82
2018-02-25T02:00:59.940Z,1054.82
2018-02-25T02:01:59.922Z,1054.78
2018-02-25T02:02:59.902Z,1054.81
2018-02-25T02:03:59.877Z,1054.81
2018-02-25T02:04:59.858Z,1054.78
2018-02-25T02:05:59.836Z,1054.78
2018-02-25T02:06:59.819Z,1054.77
2018-02-25T02:07:59.795Z,1054.7
2018-02-25T02:08:59.776Z,1054.71
2018-02-25T02:09:59.756Z,1054.73
2018-02-25T02:10:59.733Z,1054.73
2018-02-25T02:11:59.714Z,1054.71
2018-02-25T02:12:59.691Z,1054.73
2018-02-25T02:13:59.674Z,1054.69
2018-02-25T02:14:59.653Z,1054.67
2018-02-25T02:15:59.629Z,1054.66
2018-02-25T02:16:59.613Z,1054.66
2018-02-25T02:17:59.587Z,1054.68
2018-02-25T02:18:59.566Z,1054.69
2018-02-25T02:19:59.547Z,1054.74
2018-02-25T02:20:59.524Z,1054.69
2018-02-25T02:21:59.504Z,1054.68
2018-02-25T02:22:59.486Z,1054.72
2018-02-25T02:23:59.462Z,1054.77
2018-02-25T02:24:59.441Z,1054.73
2018-02-25T02:25:59.425Z,1054.78
2018-02-25T02:26:59.401Z,1054.77
2018-02-25T02:27:59.379Z,1054.8
2018-02-25T02:28:59.359Z,1054.82
2018-02-25T02:29:59.339Z,1054.82
2018-02-25T02:30:59.318Z,1054.84
2018-02-25T02:31:59.297Z,1054.9
2018-02-25T02:32:59.276Z,1054.84
2018-02-25T02:33:59.259Z,1054.86
2018-02-25T02:34:59.238Z,1054.9
2018-02-25T02:35:59.218Z,1054.92
2018-02-25T02:36:59.193Z,1054.93
2018-02-25T02:37:59.179Z,1054.89
2018-02-25T02:38:59.153Z,1054.94
2018-02-25T02:39:59.134Z,1054.92
2018-02-25T02:40:59.113Z,1054.91
2018-02-25T02:41:59.090Z,1054.92
2018-02-25T02:42:59.068Z,1054.91
2018-02-25T02:43:59.050Z,1054.91
2018-02-25T02:44:59.033Z,1054.9
2018-02-25T02:45:59.006Z,1054.91
2018-02-25T02:46:58.988Z,1054.91
2018-02-25T02:47:58.964Z,1054.9
2018-02-25T02:48:58.947Z,1054.97
2018-02-25T02:49:58.922Z,1054.97
2018-02-25T02:50:58.905Z,1054.95
2018-02-25T02:51:58.880Z,1054.97
2018-02-25T02:52:58.864Z,1054.96
2018-02-25T02:53:58.842Z,1054.98
2018-02-25T02:54:58.819Z,1054.98
2018-02-25T02:55:58.799Z,1055.01
2018-02-25T02:56:58.776Z,1055.02
2018-02-25T02:57:58.760Z,1055.04
2018-02-25T02:58:58.738Z,1055
2018-02-25T02:59:58.715Z,1055.01
2018-02-25T03:00:58.697Z,1055.01
2018-02-25T03:01:58.680Z,1055.02
2018-02-25T03:02:58.655Z,1055.04
2018-02-25T03:03:58.631Z,1055.06
2018-02-25T03:04:58.610Z,1055.06
2018-02-25T03:05:58.591Z,1055.08
2018-02-25T03:06:58.578Z,1055.07
2018-02-25T03:07:58.551Z,1055.05
2018-02-25T03:08:58.528Z,1055.05
2018-02-25T03:09:58.509Z,1055.05
2018-02-25T03:10:58.485Z,1055.11
2018-02-25T03:11:58.463Z,1055.11
2018-02-25T03:12:58.443Z,1055.16
2018-02-25T03:13:58.422Z,1055.17
2018-02-25T03:14:58.400Z,1055.25
2018-02-25T03:15:58.384Z,1055.24
2018-02-25T03:16:58.361Z,1055.3
2018-02-25T03:17:58.338Z,1055.27
2018-02-25T03:18:58.317Z,1055.28
2018-02-25T03:19:58.296Z,1055.26
2018-02-25T03:20:58.279Z,1055.22
2018-02-25T03:21:58.254Z,1055.25
2018-02-25T03:22:58.237Z,1055.25
2018-02-25T03:23:58.212Z,1055.24
2018-02-25T03:24:58.195Z,1055.26
2018-02-25T03:25:58.170Z,1055.28
2018-02-25T03:26:58.152Z,1055.28
2018-02-25T03:27:58.130Z,1055.29
2018-02-25T03:28:58.109Z,1055.33
2018-02-25T03:29:58.088Z,1055.38
2018-02-25T03:30:58.081Z,1055.34
2018-02-25T03:31:58.050Z,1055.34
2018-02-25T03:32:58.024Z,1055.39
2018-02-25T03:33:58.008Z,1055.43
2018-02-25T03:34:57.984Z,1055.37
2018-02-25T03:35:57.961Z,1055.41
2018-02-25T03:36:58.190Z,1055.4
2018-02-25T03:37:57.916Z,1055.43
2018-02-25T03:38:57.899Z,1055.48
2018-02-25T03:39:57.877Z,1055.45
2018-02-25T03:40:57.853Z,1055.46
2018-02-25T03:41:57.832Z,1055.46
2018-02-25T03:42:57.814Z,1055.49
2018-02-25T03:43:57.793Z,1055.48
2018-02-25T03:44:57.768Z,1055.4
2018-02-25T03:45:57.749Z,1055.48
2018-02-25T03:46:57.729Z,1055.45
2018-02-25T03:47:57.707Z,1055.48
2018-02-25T03:48:57.687Z,1055.42
2018-02-25T03:49:57.666Z,1055.45
2018-02-25T03:50:57.642Z,1055.43
2018-02-25T03:51:57.620Z,1055.43
2018-02-25T03:52:57.602Z,1055.4
2018-02-25T03:53:57.581Z,1055.34
2018-02-25T03:54:57.557Z,1055.36
2018-02-25T03:55:57.537Z,1055.35
2018-02-25T03:56:57.514Z,1055.33
2018-02-25T03:57:57.493Z,1055.36
2018-02-25T03:58:57.471Z,1055.32
2018-02-25T03:59:57.453Z,1055.32
2018-02-25T04:00:57.429Z,1055.32
2018-02-25T04:01:57.412Z,1055.34
2018-02-25T04:02:57.387Z,1055.28
2018-02-25T04:03:57.365Z,1055.34
2018-02-25T04:04:57.345Z,1055.31
2018-02-25T04:05:57.324Z,1055.3
2018-02-25T04:06:57.303Z,1055.3
2018-02-25T04:07:57.282Z,1055.3
2018-02-25T04:08:57.265Z,1055.27
2018-02-25T04:09:57.238Z,1055.24
2018-02-25T04:10:57.217Z,1055.27
2018-02-25T04:11:57.199Z,1055.25
2018-02-25T04:12:57.175Z,1055.28
2018-02-25T04:13:57.153Z,1055.29
2018-02-25T04:14:57.137Z,1055.29
2018-02-25T04:15:57.112Z,1055.26
2018-02-25T04:16:57.093Z,1055.26
2018-02-25T04:17:57.069Z,1055.25
2018-02-25T04:18:57.048Z,1055.24
2018-02-25T04:19:57.030Z,1055.24
2018-02-25T04:20:57.007Z,1055.26
2018-02-25T04:21:56.986Z,1055.23
2018-02-25T04:22:56.963Z,1055.3
2018-02-25T04:23:56.942Z,1055.25
2018-02-25T04:24:56.922Z,1055.26
2018-02-25T04:25:56.901Z,1055.24
2018-02-25T04:26:56.879Z,1055.24
2018-02-25T04:27:56.861Z,1055.25
2018-02-25T04:28:56.838Z,1055.24
2018-02-25T04:29:56.819Z,1055.3
2018-02-25T04:30:56.799Z,1055.3
2018-02-25T04:31:56.775Z,1055.29
2018-02-25T04:32:56.756Z,1055.31
2018-02-25T04:33:56.735Z,1055.3
2018-02-25T04:34:56.711Z,1055.28
2018-02-25T04:35:56.696Z,1055.31
2018-02-25T04:36:56.670Z,1055.33
2018-02-25T04:37:56.650Z,1055.32
2018-02-25T04:38:56.632Z,1055.32
2018-02-25T04:39:56.605Z,1055.35
2018-02-25T04:40:56.590Z,1055.35
2018-02-25T04:41:56.565Z,1055.36
2018-02-25T04:42:56.540Z,1055.31
2018-02-25T04:43:56.521Z,1055.38
2018-02-25T04:44:56.502Z,1055.36
2018-02-25T04:45:56.477Z,1055.34
2018-02-25T04:46:56.456Z,1055.33
2018-02-25T04:47:56.438Z,1055.31
2018-02-25T04:48:56.417Z,1055.37
2018-02-25T04:49:56.393Z,1055.33
2018-02-25T04:50:56.377Z,1055.3
2018-02-25T04:51:56.349Z,1055.29
2018-02-25T04:52:56.328Z,1055.28
2018-02-25T04:53:56.308Z,1055.3
2018-02-25T04:54:56.285Z,1055.28
2018-02-25T04:55:56.268Z,1055.25
2018-02-25T04:56:56.246Z,1055.31
2018-02-25T04:57:56.221Z,1055.28
2018-02-25T04:58:56.201Z,1055.28
2018-02-25T04:59:56.180Z,1055.24
2018-02-25T05:00:56.165Z,1055.27
2018-02-25T05:01:56.136Z,1055.32
2018-02-25T05:02:56.115Z,1055.33
2018-02-25T05:03:56.101Z,1055.3
2018-02-25T05:04:56.072Z,1055.31
2018-02-25T05:05:56.056Z,1055.29
2018-02-25T05:06:56.032Z,1055.28
2018-02-25T05:07:56.009Z,1055.27
2018-02-25T05:08:55.988Z,1055.29
2018-02-25T05:09:55.966Z,1055.34
2018-02-25T05:10:55.956Z,1055.35
2018-02-25T05:11:55.926Z,1055.37
2018-02-25T05:12:55.903Z,1055.37
2018-02-25T05:13:55.882Z,1055.38
2018-02-25T05:14:55.864Z,1055.38
2018-02-25T05:15:55.841Z,1055.39
2018-02-25T05:16:55.818Z,1055.39
2018-02-25T05:17:55.796Z,1055.36
2018-02-25T05:18:55.775Z,1055.36
2018-02-25T05:19:55.756Z,1055.39
2018-02-25T05:20:55.735Z,1055.35
2018-02-25T05:21:55.717Z,1055.35
2018-02-25T05:22:55.688Z,1055.35
2018-02-25T05:23:55.670Z,1055.37
2018-02-25T05:24:55.647Z,1055.37
2018-02-25T05:25:55.628Z,1055.37
2018-02-25T05:26:55.607Z,1055.35
2018-02-25T05:27:55.583Z,1055.42
2018-02-25T05:28:55.562Z,1055.37
2018-02-25T05:29:55.541Z,1055.35
2018-02-25T05:30:55.522Z,1055.4
2018-02-25T05:31:55.500Z,1055.38
2018-02-25T05:32:55.481Z,1055.39
2018-02-25T05:33:55.457Z,1055.39
2018-02-25T05:34:55.440Z,1055.38
2018-02-25T05:35:55.415Z,1055.38
2018-02-25T05:36:55.391Z,1055.39
2018-02-25T05:37:55.372Z,1055.39
2018-02-25T05:38:55.348Z,1055.4
2018-02-25T05:39:55.327Z,1055.41
2018-02-25T05:40:55.309Z,1055.44
2018-02-25T05:41:55.284Z,1055.43
2018-02-25T05:42:55.263Z,1055.48
2018-02-25T05:43:55.242Z,1055.48
2018-02-25T05:44:55.222Z,1055.52
2018-02-25T05:45:55.198Z,1055.54
2018-02-25T05:46:55.181Z,1055.57
2018-02-25T05:47:55.157Z,1055.54
2018-02-25T05:48:55.135Z,1055.54
2018-02-25T05:49:55.113Z,1055.58
2018-02-25T05:50:55.093Z,1055.62
2018-02-25T05:51:55.075Z,1055.56
2018-02-25T05:52:55.053Z,1055.59
2018-02-25T05:53:55.029Z,1055.64
2018-02-25T05:54:55.007Z,1055.64
2018-02-25T05:55:54.988Z,1055.63
2018-02-25T05:56:54.965Z,1055.64
2018-02-25T05:57:54.948Z,1055.69
2018-02-25T05:58:54.922Z,1055.66
2018-02-25T05:59:54.900Z,1055.71
2018-02-25T06:00:54.879Z,1055.72
2018-02-25T06:01:54.858Z,1055.74
2018-02-25T06:02:54.838Z,1055.74
2018-02-25T06:03:54.825Z,1055.75
2018-02-25T06:04:54.804Z,1055.77
2018-02-25T06:05:54.773Z,1055.8
2018-02-25T06:06:54.754Z,1055.78
2018-02-25T06:07:54.733Z,1055.75
2018-02-25T06:08:54.712Z,1055.74
2018-02-25T06:09:54.688Z,1055.78
2018-02-25T06:10:54.666Z,1055.77
2018-02-25T06:11:54.645Z,1055.75
2018-02-25T06:12:54.873Z,1055.72
2018-02-25T06:13:54.602Z,1055.69
2018-02-25T06:14:54.582Z,1055.67
2018-02-25T06:15:54.561Z,1055.65
2018-02-25T06:16:54.538Z,1055.62
2018-02-25T06:17:54.516Z,1055.6
2018-02-25T06:18:54.495Z,1055.58
2018-02-25T06:19:54.473Z,1055.59
2018-02-25T06:20:54.455Z,1055.52
2018-02-25T06:21:54.433Z,1055.54
2018-02-25T06:22:54.410Z,1055.51
2018-02-25T06:23:54.391Z,1055.59
2018-02-25T06:24:54.367Z,1055.57
2018-02-25T06:25:54.349Z,1055.55
2018-02-25T06:26:54.327Z,1055.53
2018-02-25T06:27:54.307Z,1055.59
2018-02-25T06:28:54.295Z,1055.59
2018-02-25T06:29:54.260Z,1055.57
2018-02-25T06:30:54.240Z,1055.55
2018-02-25T06:31:54.223Z,1055.53
2018-02-25T06:32:54.197Z,1055.41
2018-02-25T06:33:54.179Z,1055.28
2018-02-25T06:34:54.156Z,1055.18
2018-02-25T06:35:54.136Z,1054.98
2018-02-25T06:36:54.115Z,1054.81
2018-02-25T06:37:54.091Z,1054.59
2018-02-25T06:38:54.071Z,1054.41
2018-02-25T06:39:54.049Z,1054.24
2018-02-25T06:40:54.029Z,1054.03
2018-02-25T06:41:54.013Z,1053.83
2018-02-25T06:42:53.987Z,1053.64
2018-02-25T06:43:53.969Z,1053.48
2018-02-25T06:44:53.956Z,1053.41
2018-02-25T06:45:53.925Z,1053.18
2018-02-25T06:46:53.904Z,1053
2018-02-25T06:47:53.895Z,1052.78
2018-02-25T06:48:53.873Z,1052.67
2018-02-25T06:49:53.848Z,1052.58
2018-02-25T06:50:53.824Z,1052.42
2018-02-25T06:51:53.804Z,1052.28
2018-02-25T06:52:53.784Z,1052.18
2018-02-25T06:53:53.769Z,1052.09
2018-02-25T06:54:53.746Z,1051.94
2018-02-25T06:55:53.726Z,1051.81
2018-02-25T06:56:53.712Z,1051.72
2018-02-25T06:57:53.687Z,1051.62
2018-02-25T06:58:53.672Z,1051.48
2018-02-25T06:59:53.657Z,1051.36
2018-02-25T07:00:53.635Z,1051.29
2018-02-25T07:01:53.612Z,1051.04
2018-02-25T07:02:53.597Z,1050.87
2018-02-25T07:03:53.576Z,1050.67
2018-02-25T07:04:53.559Z,1050.47
2018-02-25T07:05:53.543Z,1050.31
2018-02-25T07:06:53.520Z,1050.19
2018-02-25T07:07:53.503Z,1050.09
2018-02-25T07:08:53.488Z,1049.96
2018-02-25T07:09:53.468Z,1049.85
2018-02-25T07:10:53.450Z,1049.76
2018-02-25T07:11:53.437Z,1049.66
2018-02-25T07:12:53.418Z,1049.51
2018-02-25T07:13:53.398Z,1049.38
2018-02-25T07:14:53.385Z,1049.29
2018-02-25T07:15:53.367Z,1049.2
2018-02-25T07:16:53.349Z,1049.15
2018-02-25T07:17:53.331Z,1048.99
2018-02-25T07:18:53.313Z,1048.94
2018-02-25T07:19:53.296Z,1048.91
2018-02-25T07:20:53.281Z,1048.9
2018-02-25T07:21:53.263Z,1048.85
2018-02-25T07:22:53.250Z,1048.81
2018-02-25T07:23:53.232Z,1048.77
2018-02-25T07:24:53.217Z,1048.84
2018-02-25T07:25:53.201Z,1048.94
2018-02-25T07:26:53.195Z,1049.05
2018-02-25T07:27:53.165Z,1049.12
2018-02-25T07:28:53.148Z,1049.11
2018-02-25T07:29:53.132Z,1049.11
2018-02-25T07:30:53.118Z,1049.21
2018-02-25T07:31:53.104Z,1049.14
2018-02-25T07:32:53.083Z,1049.11
2018-02-25T07:33:53.067Z,1049.02
2018-02-25T07:34:53.052Z,1048.98
2018-02-25T07:35:53.034Z,1048.99
2018-02-25T07:36:53.018Z,1049.01
2018-02-25T07:37:53.003Z,1049.03
2018-02-25T07:38:52.988Z,1049
2018-02-25T07:39:52.970Z,1048.98
2018-02-25T07:40:52.962Z,1048.94
2018-02-25T07:41:52.939Z,1048.91
2018-02-25T07:42:52.920Z,1048.88
2018-02-25T07:43:52.909Z,1048.8
2018-02-25T07:44:52.890Z,1048.78
2018-02-25T07:45:52.873Z,1048.75
2018-02-25T07:46:52.858Z,1048.63
2018-02-25T07:47:52.843Z,1048.52
2018-02-25T07:48:52.826Z,1048.39
2018-02-25T07:49:52.812Z,1048.37
2018-02-25T07:50:52.795Z,1048.34
2018-02-25T07:51:52.776Z,1048.48
2018-02-25T07:52:52.761Z,1048.58
2018-02-25T07:53:52.744Z,1048.92
2018-02-25T07:54:52.728Z,1049.2
2018-02-25T07:55:52.768Z,1049.61
2018-02-25T07:56:52.700Z,1050.12
2018-02-25T07:57:52.682Z,1050.47
2018-02-25T07:58:52.667Z,1050.81
2018-02-25T07:59:52.647Z,1051.01
2018-02-25T08:00:52.633Z,1051.24
2018-02-25T08:01:52.616Z,1051.49
2018-02-25T08:02:52.598Z,1051.71
2018-02-25T08:03:52.580Z,1051.91
2018-02-25T08:04:52.563Z,1052.1
2018-02-25T08:05:52.552Z,1052.26
2018-02-25T08:06:52.533Z,1052.39
2018-02-25T08:07:52.512Z,1052.49
2018-02-25T08:08:52.497Z,1052.53
2018-02-25T08:09:52.483Z,1052.62
2018-02-25T08:10:52.461Z,1052.65
2018-02-25T08:11:52.445Z,1052.63
2018-02-25T08:12:52.426Z,1052.63
2018-02-25T08:13:52.406Z,1052.69
2018-02-25T08:14:52.387Z,1052.68
2018-02-25T08:15:52.368Z,1052.71
2018-02-25T08:16:52.351Z,1052.77
2018-02-25T08:17:52.333Z,1052.76
2018-02-25T08:18:52.320Z,1052.75
2018-02-25T08:19:52.295Z,1052.74
2018-02-25T08:20:52.279Z,1052.73
2018-02-25T08:21:52.257Z,1052.7
2018-02-25T08:22:52.242Z,1052.7
2018-02-25T08:23:52.221Z,1052.71
2018-02-25T08:24:52.203Z,1052.72
2018-02-25T08:25:52.183Z,1052.8
2018-02-25T08:26:52.165Z,1052.82
2018-02-25T08:27:52.147Z,1052.79
2018-02-25T08:28:52.135Z,1052.8
2018-02-25T08:29:52.110Z,1052.84
2018-02-25T08:30:52.090Z,1052.89
2018-02-25T08:31:52.071Z,1052.95
2018-02-25T08:32:52.052Z,1052.97
2018-02-25T08:33:52.034Z,1052.93
2018-02-25T08:34:52.018Z,1052.91
2018-02-25T08:35:51.997Z,1052.92
2018-02-25T08:36:51.976Z,1052.93
2018-02-25T08:37:52.009Z,1053.01
2018-02-25T08:38:51.942Z,1052.98
2018-02-25T08:39:51.920Z,1052.96
2018-02-25T08:40:51.903Z,1053.03
2018-02-25T08:41:51.884Z,1052.99
2018-02-25T08:42:51.864Z,1053.07
2018-02-25T08:43:51.844Z,1053.07
2018-02-25T08:44:51.827Z,1053.04
2018-02-25T08:45:51.806Z,1052.99
2018-02-25T08:46:51.794Z,1052.98
2018-02-25T08:47:51.769Z,1052.98
2018-02-25T08:48:52.001Z,1052.98
2018-02-25T08:49:51.731Z,1052.98
2018-02-25T08:50:51.712Z,1053.04
2018-02-25T08:51:51.692Z,1052.97
2018-02-25T08:52:51.673Z,1052.98
2018-02-25T08:53:51.658Z,1052.94
2018-02-25T08:54:51.638Z,1052.94
2018-02-25T08:55:51.620Z,1052.89
2018-02-25T08:56:51.598Z,1052.87
2018-02-25T08:57:51.578Z,1052.81
2018-02-25T08:58:51.562Z,1052.82
2018-02-25T08:59:51.542Z,1052.81
2018-02-25T09:00:51.521Z,1052.77
2018-02-25T09:01:51.506Z,1052.83
2018-02-25T09:02:51.488Z,1052.85
2018-02-25T09:03:51.465Z,1052.75
2018-02-25T09:04:51.450Z,1052.73
2018-02-25T09:05:51.426Z,1052.72
2018-02-25T09:06:51.410Z,1052.65
2018-02-25T09:07:51.391Z,1052.65
2018-02-25T09:08:51.370Z,1052.63
2018-02-25T09:09:51.353Z,1052.57
2018-02-25T09:10:51.332Z,1052.55
2018-02-25T09:11:51.312Z,1052.54
2018-02-25T09:12:51.294Z,1052.51
2018-02-25T09:13:51.276Z,1052.5
2018-02-25T09:14:51.257Z,1052.45
2018-02-25T09:15:51.238Z,1052.4
2018-02-25T09:16:51.223Z,1052.29
2018-02-25T09:17:51.201Z,1052.22
2018-02-25T09:18:51.184Z,1052.18
2018-02-25T09:19:51.163Z,1052.15
2018-02-25T09:20:51.144Z,1052.12
2018-02-25T09:21:51.125Z,1052.11
2018-02-25T09:22:51.112Z,1052.07
2018-02-25T09:23:51.088Z,1052.05
2018-02-25T09:24:51.071Z,1052.07
2018-02-25T09:25:51.058Z,1052.08
2018-02-25T09:26:51.036Z,1052.14
2018-02-25T09:27:51.014Z,1052.09
2018-02-25T09:28:50.998Z,1052.1
2018-02-25T09:29:50.978Z,1052.13
2018-02-25T09:30:50.961Z,1052.09
2018-02-25T09:31:50.943Z,1052.04
2018-02-25T09:32:50.925Z,1051.98
2018-02-25T09:33:50.907Z,1051.91
2018-02-25T09:34:50.888Z,1051.91
2018-02-25T09:35:50.870Z,1051.93
2018-02-25T09:36:50.852Z,1051.93
2018-02-25T09:37:50.834Z,1051.93
2018-02-25T09:38:50.810Z,1051.94
2018-02-25T09:39:50.796Z,1051.93
2018-02-25T09:40:50.775Z,1051.9
2018-02-25T09:41:50.757Z,1051.83
2018-02-25T09:42:50.740Z,1051.85
2018-02-25T09:43:50.720Z,1051.8
2018-02-25T09:44:50.702Z,1051.8
2018-02-25T09:45:50.686Z,1051.77
2018-02-25T09:46:50.665Z,1051.71
2018-02-25T09:47:50.647Z,1051.66
2018-02-25T09:48:50.633Z,1051.59
2018-02-25T09:49:50.611Z,1051.62
2018-02-25T09:50:50.595Z,1051.62
2018-02-25T09:51:50.574Z,1051.65
2018-02-25T09:52:50.559Z,1051.63
2018-02-25T09:53:50.543Z,1051.61
2018-02-25T09:54:50.522Z,1051.61
2018-02-25T09:55:50.501Z,1051.54
2018-02-25T09:56:50.491Z,1051.49
2018-02-25T09:57:50.464Z,1051.45
2018-02-25T09:58:50.446Z,1051.43
2018-02-25T09:59:50.428Z,1051.47
2018-02-25T10:00:50.411Z,1051.45
2018-02-25T10:01:50.392Z,1051.43
2018-02-25T10:02:50.391Z,1051.45
2018-02-25T10:03:50.356Z,1051.38
2018-02-25T10:04:50.337Z,1051.33
2018-02-25T10:05:50.320Z,1051.32
2018-02-25T10:06:50.301Z,1051.3
2018-02-25T10:07:50.286Z,1051.36
2018-02-25T10:08:50.266Z,1051.33
2018-02-25T10:09:50.248Z,1051.36
2018-02-25T10:10:50.231Z,1051.3
2018-02-25T10:11:50.210Z,1051.33
2018-02-25T10:12:50.192Z,1051.27
2018-02-25T10:13:50.182Z,1051.26
2018-02-25T10:14:50.156Z,1051.27
2018-02-25T10:15:50.138Z,1051.22
2018-02-25T10:16:50.120Z,1051.25
2018-02-25T10:17:50.105Z,1051.22
2018-02-25T10:18:50.083Z,1051.26
2018-02-25T10:19:50.066Z,1051.24
2018-02-25T10:20:50.048Z,1051.19
2018-02-25T10:21:50.030Z,1051.17
2018-02-25T10:22:50.019Z,1051.14
2018-02-25T10:23:49.993Z,1051.13
2018-02-25T10:24:49.976Z,1051.16
2018-02-25T10:25:49.961Z,1051.11
2018-02-25T10:26:49.939Z,1051.08
2018-02-25T10:27:49.921Z,1051.09
2018-02-25T10:28:49.904Z,1051
2018-02-25T10:29:49.889Z,1051.01
2018-02-25T10:30:49.869Z,1050.89
2018-02-25T10:31:49.848Z,1050.84
2018-02-25T10:32:49.834Z,1050.88
2018-02-25T10:33:49.822Z,1050.81
2018-02-25T10:34:49.798Z,1050.82
2018-02-25T10:35:49.780Z,1050.8
2018-02-25T10:36:49.762Z,1050.79
2018-02-25T10:37:49.743Z,1050.83
2018-02-25T10:38:49.723Z,1050.76
2018-02-25T10:39:49.706Z,1050.71
2018-02-25T10:40:49.686Z,1050.67
2018-02-25T10:41:49.668Z,1050.71
2018-02-25T10:42:49.651Z,1050.72
2018-02-25T10:43:49.633Z,1050.66
2018-02-25T10:44:49.618Z,1050.65
2018-02-25T10:45:49.600Z,1050.6
2018-02-25T10:46:49.594Z,1050.58
2018-02-25T10:47:49.562Z,1050.54
2018-02-25T10:48:49.543Z,1050.5
2018-02-25T10:49:49.526Z,1050.5
2018-02-25T10:50:49.510Z,1050.42
2018-02-25T10:51:49.493Z,1050.3
2018-02-25T10:52:49.473Z,1050.27
2018-02-25T10:53:49.456Z,1050.27
2018-02-25T10:54:49.437Z,1050.22
2018-02-25T10:55:49.419Z,1050.14
2018-02-25T10:56:49.405Z,1050.16
2018-02-25T10:57:49.386Z,1050.07
2018-02-25T10:58:49.370Z,1050.09
2018-02-25T10:59:49.350Z,1049.99
2018-02-25T11:00:49.333Z,1049.92
2018-02-25T11:01:49.322Z,1049.92
2018-02-25T11:02:49.295Z,1049.94
2018-02-25T11:03:49.281Z,1049.86
2018-02-25T11:04:49.260Z,1049.83
2018-02-25T11:05:49.243Z,1049.84
2018-02-25T11:06:49.225Z,1049.82
2018-02-25T11:07:49.207Z,1049.83
2018-02-25T11:08:49.190Z,1049.85
2018-02-25T11:09:49.172Z,1049.83
2018-02-25T11:10:49.155Z,1049.84
2018-02-25T11:11:49.138Z,1049.83
2018-02-25T11:12:49.121Z,1049.82
2018-02-25T11:13:49.105Z,1049.86
2018-02-25T11:14:49.086Z,1049.84
2018-02-25T11:15:49.067Z,1049.79
2018-02-25T11:16:49.054Z,1049.72
2018-02-25T11:17:49.035Z,1049.66
2018-02-25T11:18:49.021Z,1049.58
2018-02-25T11:19:48.997Z,1049.57
2018-02-25T11:20:49.009Z,1049.5
2018-02-25T11:21:48.965Z,1049.51
2018-02-25T11:22:48.947Z,1049.42
2018-02-25T11:23:48.935Z,1049.35
2018-02-25T11:24:48.916Z,1049.28
2018-02-25T11:25:48.900Z,1049.29
2018-02-25T11:26:48.880Z,1049.26
2018-02-25T11:27:48.858Z,1049.23
2018-02-25T11:28:48.844Z,1049.27
2018-02-25T11:29:48.824Z,1049.21
2018-02-25T11:30:48.810Z,1049.24
2018-02-25T11:31:48.789Z,1049.27
2018-02-25T11:32:48.772Z,1049.34
2018-02-25T11:33:48.758Z,1049.37
2018-02-25T11:34:48.743Z,1049.27
2018-02-25T11:35:48.726Z,1049.26
2018-02-25T11:36:48.707Z,1049.19
2018-02-25T11:37:48.686Z,1049.17
2018-02-25T11:38:48.671Z,1049.13
2018-02-25T11:39:48.654Z,1049.11
2018-02-25T11:40:48.634Z,1049.09
2018-02-25T11:41:48.618Z,1048.98
2018-02-25T11:42:48.600Z,1048.93
2018-02-25T11:43:48.583Z,1048.9
2018-02-25T11:44:48.566Z,1048.86
2018-02-25T11:45:48.549Z,1048.96
2018-02-25T11:46:48.534Z,1048.97
2018-02-25T11:47:48.514Z,1049.09
2018-02-25T11:48:48.497Z,1049.14
2018-02-25T11:49:48.481Z,1049.22
2018-02-25T11:50:48.463Z,1049.18
2018-02-25T11:51:48.449Z,1049.15
2018-02-25T11:52:48.432Z,1049.16
2018-02-25T11:53:48.416Z,1049.1
2018-02-25T11:54:48.395Z,1049.08
2018-02-25T11:55:48.381Z,1049.06
2018-02-25T11:56:48.374Z,1048.97
2018-02-25T11:57:48.343Z,1048.91
2018-02-25T11:58:48.383Z,1048.87
2018-02-25T11:59:48.313Z,1048.86
2018-02-25T12:00:48.292Z,1048.79
2018-02-25T12:01:48.275Z,1048.73
2018-02-25T12:02:48.261Z,1048.7
2018-02-25T12:03:48.241Z,1048.73
2018-02-25T12:04:48.226Z,1048.77
2018-02-25T12:05:48.216Z,1048.78
2018-02-25T12:06:48.196Z,1048.77
2018-02-25T12:07:48.174Z,1048.8